Time;durP1;ratioP1;P1;durP2;ratioP2;P2;SDS_P1;SDS_P2;PMS_P1;PMS_P2;Temp;Humidity;BMP_temperature;BMP_pressure;BME280_temperature;BME280_humidity;BME280_pressure;Samples;Min_cycle;Max_cycle;Signal;HPM_P1;HPM_P2
2021/04/01 00:00:14;;;;;;;16.35;10.40;;;;;;;8.41;56.02;97354.50;5063607;28;20530;-58
2021/04/01 00:02:58;;;;;;;20.58;11.05;;;;;;;8.48;56.18;97343.66;5062742;28;20465;-59
2021/04/01 00:05:43;;;;;;;23.20;11.02;;;;;;;8.45;56.20;97336.09;5063854;28;20040;-61
2021/04/01 00:08:27;;;;;;;20.00;12.25;;;;;;;8.58;56.31;97340.44;5063061;28;20140;-59
2021/04/01 00:11:13;;;;;;;24.95;13.40;;;;;;;8.65;55.79;97348.91;5063488;28;20565;-57
2021/04/01 00:14:00;;;;;;;25.02;13.00;;;;;;;8.67;55.87;97343.84;5064161;28;20067;-59
2021/04/01 00:16:45;;;;;;;24.40;13.73;;;;;;;8.69;56.40;97347.06;5062248;28;20166;-58
2021/04/01 00:19:29;;;;;;;27.10;14.20;;;;;;;8.63;55.97;97342.94;5064192;28;20114;-58
2021/04/01 00:22:13;;;;;;;24.85;12.98;;;;;;;8.71;55.75;97339.25;5063920;28;20058;-59
2021/04/01 00:24:57;;;;;;;24.40;13.35;;;;;;;8.62;55.64;97335.78;5064410;28;20142;-58
2021/04/01 00:27:41;;;;;;;21.83;13.38;;;;;;;8.71;55.25;97342.00;5064265;28;20055;-60
2021/04/01 00:30:25;;;;;;;24.77;13.93;;;;;;;8.84;56.19;97329.72;5063258;28;20116;-60
2021/04/01 00:33:09;;;;;;;26.40;14.43;;;;;;;8.84;56.13;97338.81;5063768;28;20137;-59
2021/04/01 00:35:53;;;;;;;25.83;14.52;;;;;;;8.68;55.34;97312.28;5063317;28;20139;-58
2021/04/01 00:38:37;;;;;;;;;;;;;;;8.87;55.50;97326.25;5064251;28;20043;-61
2021/04/01 00:41:21;;;;;;;16.55;10.50;;;;;;;8.12;57.72;97327.16;5063306;28;20141;-62
2021/04/01 00:44:06;;;;;;;20.08;10.88;;;;;;;7.86;57.87;97239.28;5064018;28;20824;-59
2021/04/01 00:46:50;;;;;;;20.67;11.75;;;;;;;8.52;57.39;97319.75;5063315;28;20094;-59
2021/04/01 00:49:38;;;;;;;17.20;10.35;;;;;;;8.06;59.00;97323.03;5063546;28;20145;-60
2021/04/01 00:52:24;;;;;;;17.55;10.32;;;;;;;8.19;59.24;97328.19;5062784;28;20055;-58
2021/04/01 00:55:09;;;;;;;17.95;10.20;;;;;;;8.31;58.43;97313.59;5061996;28;20043;-58
2021/04/01 00:57:56;;;;;;;19.35;11.75;;;;;;;8.28;58.44;97314.28;5043803;28;20124;-58
2021/04/01 01:00:40;;;;;;;16.42;10.65;;;;;;;8.16;59.29;97289.44;5041829;28;20035;-61
2021/04/01 01:03:25;;;;;;;16.45;11.02;;;;;;;7.95;60.78;97310.88;5043305;28;20435;-59
2021/04/01 01:06:09;;;;;;;16.95;10.38;;;;;;;8.07;60.92;97297.88;5043182;28;20052;-60
2021/04/01 01:08:52;;;;;;;19.50;11.20;;;;;;;7.82;60.03;97248.59;5056356;28;20055;-59
2021/04/01 01:11:38;;;;;;;19.92;11.63;;;;;;;8.21;60.43;97292.78;5055552;28;20093;-59
2021/04/01 01:14:22;;;;;;;17.27;10.82;;;;;;;8.01;61.47;97290.97;5043443;28;20153;-59
2021/04/01 01:17:06;;;;;;;20.17;11.32;;;;;;;8.26;60.22;97294.50;5043458;28;20136;-59
2021/04/01 01:19:52;;;;;;;14.18;9.95;;;;;;;8.08;60.07;97293.16;5043210;28;20079;-59
2021/04/01 01:22:38;;;;;;;17.15;10.13;;;;;;;8.04;60.05;97281.19;5043061;28;20126;-59
2021/04/01 01:25:22;;;;;;;19.85;10.95;;;;;;;7.98;60.67;97277.06;5042602;28;20048;-59
2021/04/01 01:28:06;;;;;;;20.25;11.30;;;;;;;7.82;60.32;97249.41;5056368;28;20174;-60
2021/04/01 01:30:51;;;;;;;17.05;10.40;;;;;;;7.94;59.56;97274.19;5042351;28;20047;-58
2021/04/01 01:33:41;;;;;;;19.42;10.57;;;;;;;7.95;59.04;97263.97;5043004;28;20067;-59
2021/04/01 01:36:25;;;;;;;17.02;10.98;;;;;;;7.98;59.34;97255.81;5042974;28;20044;-59
2021/04/01 01:39:09;;;;;;;20.70;10.77;;;;;;;7.53;59.38;97195.34;5045713;28;20585;-58
2021/04/01 01:41:53;;;;;;;17.67;11.23;;;;;;;7.96;59.20;97243.50;5046481;28;20119;-58
2021/04/01 01:44:39;;;;;;;17.63;11.02;;;;;;;7.94;59.70;97240.28;5046429;28;20128;-57
2021/04/01 01:47:23;;;;;;;22.73;13.32;;;;;;;5.60;59.54;96858.91;5059402;28;20044;-58
2021/04/01 01:50:10;;;;;;;20.90;12.40;;;;;;;8.02;59.39;97239.34;5046445;28;20047;-61
2021/04/01 01:52:55;;;;;;;20.45;10.52;;;;;;;7.28;60.64;97204.00;5046668;28;20090;-58
2021/04/01 01:55:40;;;;;;;16.42;11.50;;;;;;;7.05;60.88;97167.81;5047184;28;20056;-59
2021/04/01 01:58:24;;;;;;;17.80;11.13;;;;;;;7.06;61.98;97252.09;5066451;28;20435;-59
2021/04/01 02:01:08;;;;;;;18.30;11.20;;;;;;;7.02;63.33;97226.34;5066086;28;20039;-59
2021/04/01 02:03:53;;;;;;;16.10;11.07;;;;;;;7.08;63.70;97219.47;5065296;28;20091;-58
2021/04/01 02:06:37;;;;;;;20.35;10.50;;;;;;;6.88;63.72;97223.13;5066007;28;20418;-58
2021/04/01 02:09:21;;;;;;;18.08;11.60;;;;;;;5.26;63.54;96941.72;5065074;28;20106;-59
2021/04/01 02:12:06;;;;;;;17.98;11.55;;;;;;;6.51;64.47;97152.66;5066156;28;20052;-59
2021/04/01 02:14:50;;;;;;;19.30;11.85;;;;;;;6.84;63.70;97172.66;5066114;28;20459;-59
2021/04/01 02:17:34;;;;;;;20.73;11.05;;;;;;;6.63;63.70;97108.63;5066393;28;20419;-59
2021/04/01 02:20:18;;;;;;;25.05;13.38;;;;;;;6.80;64.83;97165.41;5065730;28;20074;-59
2021/04/01 02:23:02;;;;;;;19.33;11.93;;;;;;;6.97;66.02;97209.28;5065941;28;20039;-58
2021/04/01 02:25:48;;;;;;;21.60;12.20;;;;;;;6.96;66.65;97200.19;5064327;28;20078;-58
2021/04/01 02:28:35;;;;;;;24.92;13.25;;;;;;;7.03;66.55;97197.69;5065980;28;20086;-58
2021/04/01 02:31:20;;;;;;;26.67;15.60;;;;;;;6.31;66.95;97098.50;5064199;28;20456;-59
2021/04/01 02:34:04;;;;;;;30.65;16.92;;;;;;;7.41;67.30;97197.31;5065579;28;20059;-58
2021/04/01 02:36:48;;;;;;;29.98;17.05;;;;;;;7.46;65.09;97098.66;5065340;28;20422;-59
2021/04/01 02:39:33;;;;;;;25.77;16.90;;;;;;;8.08;63.73;97166.25;5065722;28;20120;-61
2021/04/01 02:42:17;;;;;;;31.25;16.20;;;;;;;8.10;64.19;97158.41;5063882;28;20529;-60
2021/04/01 02:45:02;;;;;;;29.80;17.05;;;;;;;7.70;62.57;97200.59;5065400;28;20039;-58
2021/04/01 02:47:46;;;;;;;24.15;16.42;;;;;;;8.47;62.88;97174.47;5065730;28;20097;-58
2021/04/01 02:50:30;;;;;;;31.15;16.63;;;;;;;8.54;60.96;97173.84;5064004;28;20073;-60
2021/04/01 02:53:15;;;;;;;28.20;15.77;;;;;;;7.18;61.76;96962.84;5065439;28;20494;-58
2021/04/01 02:55:59;;;;;;;30.05;17.08;;;;;;;8.34;60.24;97144.53;5064786;28;20036;-59
2021/04/01 02:58:43;;;;;;;28.65;16.85;;;;;;;8.36;60.81;97131.19;5064982;28;20415;-59
2021/04/01 03:01:27;;;;;;;23.80;15.23;;;;;;;8.43;58.94;97150.69;5064852;28;20513;-60
2021/04/01 03:04:11;;;;;;;21.95;13.00;;;;;;;5.77;52.91;96673.78;5064064;28;20035;-59
2021/04/01 03:06:55;;;;;;;22.40;13.95;;;;;;;8.91;54.48;97155.91;5065163;28;20423;-59
2021/04/01 03:09:39;;;;;;;14.77;8.75;;;;;;;8.98;53.11;97153.31;5065251;28;20121;-58
2021/04/01 03:12:23;;;;;;;22.08;13.32;;;;;;;8.96;53.37;97150.13;5064128;28;20047;-59
2021/04/01 03:15:09;;;;;;;21.95;14.18;;;;;;;9.04;53.35;97143.59;5063720;28;20480;-59
2021/04/01 03:17:53;;;;;;;12.35;5.90;;;;;;;8.77;52.83;97120.44;5065064;28;20051;-58
2021/04/01 03:20:38;;;;;;;43.28;14.45;;;;;;;8.42;52.24;97060.78;5064823;28;20041;-59
2021/04/01 03:23:22;;;;;;;16.05;8.98;;;;;;;8.80;51.80;97105.13;5064917;28;20039;-60
2021/04/01 03:26:06;;;;;;;26.77;14.77;;;;;;;9.05;52.79;97150.72;5064692;28;20046;-59
2021/04/01 03:28:50;;;;;;;19.63;11.15;;;;;;;8.97;54.52;97171.03;5064858;28;20036;-59
2021/04/01 03:31:35;;;;;;;22.73;13.38;;;;;;;8.95;54.05;97168.66;5064245;28;20094;-60
2021/04/01 03:34:19;;;;;;;30.38;15.15;;;;;;;8.79;53.56;97125.59;5064483;28;20478;-61
2021/04/01 03:37:03;;;;;;;26.83;14.50;;;;;;;8.49;53.27;97110.63;5064398;28;20093;-59
2021/04/01 03:39:47;;;;;;;20.20;11.88;;;;;;;8.94;53.20;97163.47;5064406;28;20171;-59
2021/04/01 03:42:32;;;;;;;24.05;14.95;;;;;;;9.04;53.26;97171.25;5064647;28;20097;-61
2021/04/01 03:45:16;;;;;;;26.00;14.30;;;;;;;8.95;53.77;97179.69;5062828;28;20494;-59
2021/04/01 03:48:00;;;;;;;23.33;13.80;;;;;;;8.51;52.45;97124.88;5064223;28;20116;-58
2021/04/01 03:50:45;;;;;;;24.55;14.52;;;;;;;8.92;52.52;97168.53;5063804;28;20078;-58
2021/04/01 03:53:29;;;;;;;27.80;13.20;;;;;;;9.06;51.25;97179.94;5062948;28;20038;-59
2021/04/01 03:56:13;;;;;;;24.58;14.18;;;;;;;9.09;51.06;97195.81;5063798;28;20052;-59
2021/04/01 03:59:03;;;;;;;47.60;27.63;;;;;;;9.08;51.90;97188.69;5064142;28;20570;-59
2021/04/01 04:16:16;;;;;;;26.85;15.07;;;;;;;9.15;52.48;97211.00;5063727;28;20552;-59
2021/04/01 04:19:01;;;;;;;31.65;14.88;;;;;;;9.22;52.60;97222.19;5062816;28;20043;-58
2021/04/01 04:21:45;;;;;;;25.25;14.43;;;;;;;9.11;51.28;97193.50;5062754;28;20082;-58
2021/04/01 04:24:33;;;;;;;20.67;13.77;;;;;;;9.18;51.42;97199.22;5063750;28;20549;-60
2021/04/01 04:27:56;;;;;;;24.25;14.32;;;;;;;9.30;51.67;97212.94;5063600;28;20422;-59
2021/04/01 04:30:24;;;;;;;51.05;27.77;;;;;;;9.05;50.95;97128.63;5062917;28;20039;-61
2021/04/01 04:33:08;;;;;;;28.50;16.08;;;;;;;9.52;51.34;97212.28;5063597;28;20056;-60
2021/04/01 04:35:52;;;;;;;28.20;16.27;;;;;;;9.18;51.33;97155.00;5062012;28;20178;-60
2021/04/01 04:38:36;;;;;;;23.95;15.18;;;;;;;9.51;50.94;97224.50;5062870;28;20047;-59
2021/04/01 04:41:20;;;;;;;23.02;14.82;;;;;;;9.57;50.23;97223.06;5061908;28;20043;-60
2021/04/01 04:44:05;;;;;;;21.20;13.40;;;;;;;8.44;50.69;97045.44;5063705;28;20081;-58
2021/04/01 04:46:49;;;;;;;27.70;16.33;;;;;;;9.87;51.06;97235.22;5063622;28;20044;-60
2021/04/01 04:49:33;;;;;;;26.27;15.30;;;;;;;9.68;50.77;97185.41;5063875;28;20107;-59
2021/04/01 04:52:20;;;;;;;24.20;16.42;;;;;;;10.19;50.49;97245.09;5061948;28;20160;-59
2021/04/01 04:55:06;;;;;;;25.60;15.18;;;;;;;9.58;49.54;97136.16;5063459;28;20039;-58
2021/04/01 05:01:04;;;;;;;23.27;15.07;;;;;;;10.20;49.41;97257.75;5063372;28;20563;-58
2021/04/01 05:06:55;;;;;;;34.38;15.63;;;;;;;10.06;49.82;97251.88;5063260;28;20107;-59
2021/04/01 05:09:39;;;;;;;25.10;14.77;;;;;;;10.06;50.33;97251.88;5063079;28;20119;-62
2021/04/01 05:12:23;;;;;;;26.63;15.77;;;;;;;9.32;50.13;97115.81;5061424;28;20099;-60
2021/04/01 05:15:08;;;;;;;27.33;16.15;;;;;;;10.30;48.92;97257.19;5066150;28;20035;-58
2021/04/01 05:17:55;;;;;;;29.33;15.43;;;;;;;10.23;49.44;97257.00;5067415;28;20074;-58
2021/04/01 05:20:41;;;;;;;26.33;15.10;;;;;;;10.22;49.46;97240.78;5066549;28;20074;-58
2021/04/01 05:23:42;;;;;;;28.92;17.73;;;;;;;10.28;50.04;97251.19;5065883;28;20329;-58
2021/04/01 05:29:21;;;;;;;22.53;13.93;;;;;;;10.26;50.10;97256.28;5066618;28;20047;-58
2021/04/01 05:32:06;;;;;;;25.00;15.77;;;;;;;10.25;49.29;97265.78;5065140;28;20298;-58
2021/04/01 05:34:51;;;;;;;27.45;16.05;;;;;;;9.84;49.47;97274.69;5066588;28;20584;-58
2021/04/01 05:37:36;;;;;;;29.10;14.73;;;;;;;9.45;48.55;97220.41;5067003;28;20039;-59
2021/04/01 05:40:21;;;;;;;23.20;13.75;;;;;;;9.56;49.84;97314.69;5066024;28;20078;-58
2021/04/01 05:43:07;;;;;;;25.13;15.38;;;;;;;9.55;50.80;97277.91;5066835;28;20058;-59
2021/04/01 05:45:56;;;;;;;30.75;16.02;;;;;;;9.04;50.82;97204.41;5064981;28;20051;-57
2021/04/01 06:04:09;;;;;;;16.10;10.13;;;;;;;9.72;49.75;97208.38;5046667;28;20051;-59
2021/04/01 06:07:05;;;;;;;17.02;10.70;;;;;;;9.97;49.32;97242.16;5046265;28;20099;-58
2021/04/01 06:09:56;;;;;;;27.50;14.32;;;;;;;10.06;48.51;97229.72;5046143;28;20055;-59
2021/04/01 06:12:40;;;;;;;18.38;9.88;;;;;;;9.67;49.44;97180.22;5064879;28;20580;-59
2021/04/01 06:15:25;;;;;;;22.30;13.57;;;;;;;9.96;49.17;97202.63;5064545;28;20047;-59
2021/04/01 06:18:14;;;;;;;21.58;13.50;;;;;;;10.40;49.44;97233.66;5065969;28;20429;-59
2021/04/01 06:21:09;;;;;;;24.60;15.30;;;;;;;10.33;49.08;97242.59;5065460;28;20101;-60
2021/04/01 06:24:13;;;;;;;18.85;10.23;;;;;;;7.44;48.58;96784.09;5065891;28;20151;-60
2021/04/01 06:30:15;;;;;;;26.02;14.65;;;;;;;10.43;47.98;97217.09;5065654;28;20055;-62
2021/04/01 06:33:11;;;;;;;22.48;12.40;;;;;;;10.48;48.07;97235.38;5065402;28;20040;-61
2021/04/01 06:38:40;;;;;;;27.42;15.98;;;;;;;10.92;47.79;97252.47;5064929;28;20044;-59
2021/04/01 06:41:29;;;;;;;25.75;16.10;;;;;;;11.09;46.93;97254.78;5065362;28;20051;-59
2021/04/01 06:44:34;;;;;;;17.35;10.50;;;;;;;10.98;46.79;97270.41;5066093;28;20707;-59
2021/04/01 06:47:22;;;;;;;23.00;14.95;;;;;;;11.15;46.80;97276.28;5064985;28;20469;-58
2021/04/01 06:50:20;;;;;;;25.77;15.95;;;;;;;11.27;46.44;97269.78;5064143;28;20450;-60
2021/04/01 06:53:15;;;;;;;24.45;14.88;;;;;;;11.25;46.07;97277.66;5064499;28;20055;-61
2021/04/01 06:56:13;;;;;;;23.55;15.27;;;;;;;10.79;46.63;97248.25;5064922;28;20063;-60
2021/04/01 07:04:43;;;;;;;28.25;16.08;;;;;;;10.49;46.66;97315.34;5064474;28;20089;-59
2021/04/01 07:07:28;;;;;;;26.98;16.05;;;;;;;10.38;46.56;97224.91;5065224;28;20047;-59
2021/04/01 07:10:39;;;;;;;27.13;14.73;;;;;;;10.92;46.16;97241.41;5064454;28;20059;-63
2021/04/01 07:13:29;;;;;;;22.70;12.43;;;;;;;11.26;46.42;97276.47;5064595;28;20043;-60
2021/04/01 07:16:21;;;;;;;20.35;10.98;;;;;;;11.46;44.64;97280.81;5064350;28;20043;-60
2021/04/01 07:46:32;;;;;;;15.50;7.13;;;;;;;11.91;41.73;97272.44;5070924;28;20078;-68
2021/04/01 07:49:21;;;;;;;13.05;6.40;;;;;;;11.91;40.69;97253.03;5073918;28;20054;-62
2021/04/01 07:52:07;;;;;;;14.45;8.32;;;;;;;11.75;41.22;97250.41;5067792;28;20081;-66
2021/04/01 08:06:28;;;;;;;14.02;9.88;;;;;;;12.59;39.71;97189.66;5055737;28;20079;-65
2021/04/01 08:09:20;;;;;;;10.85;7.35;;;;;;;12.15;37.49;97156.19;5051840;28;20046;-65
2021/04/01 08:12:20;;;;;;;14.95;9.18;;;;;;;13.25;36.58;97238.84;5063501;28;20516;-69
2021/04/01 08:15:17;;;;;;;17.67;9.88;;;;;;;13.22;37.00;97207.03;5063371;28;20106;-64
2021/04/01 08:21:00;;;;;;;17.05;10.52;;;;;;;10.39;37.12;96667.19;5043691;28;20518;-63
2021/04/01 08:23:52;;;;;;;19.02;10.85;;;;;;;13.24;36.36;97071.16;5064161;28;20040;-62
2021/04/01 08:26:57;;;;;;;20.10;13.00;;;;;;;14.33;34.95;97232.53;5061898;28;20048;-68
2021/04/01 08:35:34;;;;;;;15.98;9.32;;;;;;;14.45;33.15;97168.06;5063241;28;20063;-64
2021/04/01 08:38:19;;;;;;;17.90;10.07;;;;;;;14.78;33.32;97198.47;5062630;28;20503;-65
2021/04/01 08:41:19;;;;;;;12.27;9.10;;;;;;;12.62;32.22;96866.53;5062311;28;20069;-67
2021/04/01 08:44:23;;;;;;;16.35;10.02;;;;;;;15.30;32.95;97208.16;5063325;28;20050;-66
2021/04/01 08:47:17;;;;;;;;;;;;;;;15.29;32.30;97201.75;5065700;28;20094;-63
2021/04/01 08:50:28;;;;;;;13.57;8.10;;;;;;;14.62;32.09;97206.41;5087849;28;20520;-66
2021/04/01 08:53:53;;;;;;;13.82;9.05;;;;;;;14.88;31.71;97206.88;5084988;28;20039;-65
2021/04/01 08:56:42;;;;;;;;;;;;;;;15.13;31.94;97204.13;5068283;28;20048;-67
2021/04/01 08:59:33;;;;;;;15.27;9.18;;;;;;;14.77;31.93;97118.78;5066521;28;20026;-70
2021/04/01 09:02:22;;;;;;;18.83;12.50;;;;;;;15.37;30.89;97158.72;5066878;28;20044;-69
2021/04/01 09:05:08;;;;;;;29.35;20.15;;;;;;;15.24;31.01;97204.16;5066922;28;20576;-67
2021/04/01 09:07:59;;;;;;;21.65;11.98;;;;;;;15.32;29.23;97200.97;5067360;28;20070;-65
2021/04/01 09:10:56;;;;;;;14.57;9.57;;;;;;;15.21;30.10;97205.75;5066540;28;20553;-64
2021/04/01 09:13:46;;;;;;;12.68;9.10;;;;;;;13.97;30.77;96980.03;5065718;28;20067;-68
2021/04/01 09:16:32;;;;;;;11.20;8.30;;;;;;;14.50;30.94;97134.25;5065743;28;20242;-66
2021/04/01 09:19:26;;;;;;;14.27;10.75;;;;;;;14.14;30.04;97048.91;5067080;28;20122;-66
2021/04/01 09:22:26;;;;;;;11.13;7.88;;;;;;;15.39;30.10;97184.28;5066396;28;20072;-66
2021/04/01 09:25:12;;;;;;;11.10;8.52;;;;;;;15.60;29.74;97156.31;5066336;28;20060;-65
2021/04/01 09:28:02;;;;;;;16.73;8.32;;;;;;;15.96;29.74;97180.25;5065722;28;20051;-64
2021/04/01 09:30:56;;;;;;;21.85;11.80;;;;;;;16.11;28.74;97184.59;5064849;28;20087;-65
2021/04/01 09:33:41;;;;;;;;;;;;;;;16.04;28.43;97181.03;5067045;28;20056;-64
2021/04/01 09:36:37;;;;;;;11.20;7.93;;;;;;;15.79;28.55;97153.09;5066327;28;20624;-64
2021/04/01 09:39:31;;;;;;;15.25;8.50;;;;;;;15.58;28.52;97121.63;5066453;28;20039;-74
2021/04/01 09:42:16;;;;;;;13.13;7.75;;;;;;;15.88;28.91;97122.78;5066607;28;20087;-65
2021/04/01 09:45:01;;;;;;;17.05;10.27;;;;;;;16.36;28.16;97165.75;5066012;28;20415;-63
2021/04/01 09:47:49;;;;;;;15.48;10.35;;;;;;;16.28;27.72;97164.16;5066488;28;20052;-68
2021/04/01 09:50:37;;;;;;;10.23;8.45;;;;;;;16.27;28.65;97120.66;5066153;28;20137;-69
2021/04/01 09:53:23;;;;;;;13.70;8.63;;;;;;;16.39;28.97;97120.19;5065328;28;20038;-69
2021/04/01 09:56:21;;;;;;;9.85;7.07;;;;;;;16.51;28.77;97111.41;5064932;28;20404;-65
2021/04/01 09:59:05;;;;;;;10.15;7.82;;;;;;;16.68;28.69;97148.06;5045661;28;20094;-68
2021/04/01 10:02:01;;;;;;;;;;;;;;;16.17;28.38;97152.22;5046338;28;20094;-72
2021/04/01 10:04:50;;;;;;;11.15;7.68;;;;;;;14.49;28.71;96820.50;5046334;28;19991;-67
2021/04/01 10:07:37;;;;;;;10.95;7.30;;;;;;;16.95;28.23;97146.28;5046442;28;20052;-63
2021/04/01 10:10:36;;;;;;;14.25;9.32;;;;;;;16.90;28.49;97105.56;5045349;28;20068;-63
2021/04/01 10:13:24;;;;;;;13.10;8.95;;;;;;;16.53;29.10;97122.94;5046385;28;20079;-62
2021/04/01 10:16:22;;;;;;;10.18;7.80;;;;;;;17.18;29.00;97126.97;5046309;28;20036;-63
2021/04/01 10:19:06;;;;;;;8.88;7.70;;;;;;;16.95;27.79;97112.72;5044670;28;20146;-63
2021/04/01 10:21:51;;;;;;;13.32;9.35;;;;;;;17.31;28.69;97109.25;5045706;28;20036;-64
2021/04/01 10:24:37;;;;;;;10.35;7.25;;;;;;;17.16;28.57;97112.56;5045872;28;20088;-62
2021/04/01 10:27:27;;;;;;;13.95;9.82;;;;;;;16.86;29.96;97112.38;5044884;28;20447;-65
2021/04/01 10:30:12;;;;;;;13.95;7.90;;;;;;;16.95;28.49;97109.91;5058083;28;20040;-63
2021/04/01 10:33:08;;;;;;;11.05;7.38;;;;;;;16.48;29.76;97112.22;5045133;28;20580;-69
2021/04/01 10:35:55;;;;;;;8.18;7.00;;;;;;;14.63;28.90;96759.13;5044586;28;20094;-64
2021/04/01 10:38:40;;;;;;;10.88;7.32;;;;;;;15.15;30.31;96917.94;5044566;28;20042;-65
2021/04/01 10:41:25;;;;;;;10.38;7.43;;;;;;;16.75;29.12;97103.25;5044478;28;20408;-68
2021/04/01 10:44:10;;;;;;;11.95;7.63;;;;;;;16.79;29.91;97042.50;5044988;28;20039;-66
2021/04/01 10:46:56;;;;;;;15.27;9.52;;;;;;;17.41;29.08;97051.56;5046070;28;20102;-65
2021/04/01 10:49:41;;;;;;;12.75;7.43;;;;;;;17.49;28.18;97048.31;5065294;28;20093;-67
2021/04/01 10:52:32;;;;;;;11.45;8.07;;;;;;;17.82;28.64;97100.00;5063329;28;20075;-65
2021/04/01 10:55:16;;;;;;;11.18;9.18;;;;;;;17.24;28.81;97046.91;5063015;28;20112;-67
2021/04/01 10:58:10;;;;;;;12.40;10.00;;;;;;;17.67;29.62;97065.72;5055982;28;20530;-66
2021/04/01 11:00:55;;;;;;;;;;;;;;;18.18;29.23;97084.34;5062108;28;20094;-65
2021/04/01 11:03:46;;;;;;;13.27;9.80;;;;;;;17.37;29.54;96927.59;5069219;28;19931;-62
2021/04/01 11:06:33;;;;;;;13.55;8.40;;;;;;;16.67;29.37;96808.81;5076740;28;20051;-62
2021/04/01 11:09:19;;;;;;;13.65;8.00;;;;;;;17.94;29.12;97035.00;5084925;28;20471;-63
2021/04/01 11:12:15;;;;;;;12.40;8.15;;;;;;;16.08;28.47;96710.34;5082275;28;20128;-64
2021/04/01 11:15:05;;;;;;;14.45;11.52;;;;;;;18.18;28.46;97010.69;5074433;28;20039;-62
2021/04/01 11:18:00;;;;;;;8.38;7.50;;;;;;;17.10;30.83;97031.06;5064697;28;20877;-62
2021/04/01 11:20:48;;;;;;;11.90;8.18;;;;;;;17.47;30.34;97041.50;5070106;28;20085;-61
2021/04/01 11:23:34;;;;;;;23.35;8.77;;;;;;;17.72;30.01;97065.25;5075016;28;20144;-62
2021/04/01 11:26:27;;;;;;;10.85;8.80;;;;;;;17.88;29.62;97048.69;5063751;28;20036;-62
2021/04/01 11:29:16;;;;;;;12.80;9.27;;;;;;;18.15;29.45;97033.97;5065311;28;20051;-65
2021/04/01 11:32:17;;;;;;;9.80;8.05;;;;;;;18.25;28.49;97039.41;5073699;28;20040;-66
2021/04/01 11:35:04;;;;;;;9.13;7.57;;;;;;;18.28;29.31;97049.00;5080415;28;20055;-63
2021/04/01 11:37:51;;;;;;;11.65;8.40;;;;;;;18.32;29.04;97046.94;5060975;28;20079;-61
2021/04/01 11:40:38;;;;;;;12.07;8.02;;;;;;;18.13;29.73;97049.16;5076394;28;20043;-65
2021/04/01 11:43:36;;;;;;;11.07;7.80;;;;;;;17.83;29.57;97045.56;5064750;28;20059;-65
2021/04/01 11:46:23;;;;;;;10.20;7.63;;;;;;;18.26;29.69;97049.41;5063662;28;20047;-65
2021/04/01 11:49:07;;;;;;;12.02;7.80;;;;;;;17.86;29.73;96960.66;5083422;28;20055;-64
2021/04/01 11:51:52;;;;;;;12.65;8.50;;;;;;;17.91;30.43;97035.81;5082700;28;20043;-63
2021/04/01 11:54:37;;;;;;;9.32;7.72;;;;;;;17.19;30.59;96888.59;5073668;28;20106;-68
2021/04/01 11:57:26;;;;;;;22.30;11.38;;;;;;;18.30;30.13;97036.16;5057123;28;20504;-66
2021/04/01 12:00:16;;;;;;;12.20;8.85;;;;;;;17.79;30.35;97027.97;5064475;28;20031;-65
2021/04/01 12:03:12;;;;;;;8.80;7.90;;;;;;;17.88;30.13;97025.44;5047520;28;20047;-67
2021/04/01 12:05:57;;;;;;;11.07;8.88;;;;;;;15.06;29.76;96607.13;5082199;28;20152;-63
2021/04/01 12:08:42;;;;;;;14.20;8.80;;;;;;;17.07;30.09;96913.53;5084196;28;20051;-63
2021/04/01 12:11:29;;;;;;;9.23;7.70;;;;;;;17.90;31.02;97023.03;5082334;28;20421;-63
2021/04/01 12:14:16;;;;;;;8.40;7.38;;;;;;;17.26;31.34;96971.72;5075975;28;20042;-63
2021/04/01 12:17:02;;;;;;;8.50;7.60;;;;;;;17.26;31.22;97022.88;5077446;28;20070;-62
2021/04/01 12:19:46;;;;;;;10.20;7.60;;;;;;;17.54;30.65;97010.66;5067179;28;20110;-63
2021/04/01 12:22:33;;;;;;;13.65;7.78;;;;;;;17.46;30.26;97009.13;5043842;28;20473;-64
2021/04/01 12:25:20;;;;;;;10.68;7.22;;;;;;;17.57;29.98;97004.19;5059052;28;20119;-64
2021/04/01 12:28:05;;;;;;;13.65;7.55;;;;;;;17.55;30.09;96942.19;5078365;28;20082;-64
2021/04/01 12:30:51;;;;;;;10.45;7.63;;;;;;;17.20;29.44;96872.59;5063723;28;20067;-64
2021/04/01 12:33:47;;;;;;;11.38;8.15;;;;;;;18.27;29.40;96997.75;5067896;28;20068;-68
2021/04/01 12:36:34;;;;;;;9.88;7.60;;;;;;;18.49;28.78;96982.22;5061771;28;20052;-63
2021/04/01 12:39:32;;;;;;;11.32;6.85;;;;;;;17.90;28.56;96913.72;5042893;28;20052;-66
2021/04/01 12:42:16;;;;;;;10.95;7.53;;;;;;;18.49;27.65;96976.59;5042422;28;20087;-66
2021/04/01 12:45:00;;;;;;;9.88;6.88;;;;;;;18.26;27.63;96902.81;5053152;28;20097;-65
2021/04/01 12:47:44;;;;;;;;;;;;;;;18.58;28.24;96968.44;5084450;28;20216;-68
2021/04/01 12:50:31;;;;;;;;;;;;;;;18.02;29.12;96974.81;5082214;28;20370;-66
2021/04/01 12:53:23;;;;;;;8.20;7.15;;;;;;;18.06;28.09;96976.38;5081830;28;20315;-66
2021/04/01 12:56:18;;;;;;;14.93;7.45;;;;;;;18.36;27.71;96966.34;5083058;28;20035;-65
2021/04/01 12:59:06;;;;;;;9.25;6.68;;;;;;;18.00;28.28;96977.28;5083313;28;20051;-64
2021/04/01 13:01:57;;;;;;;5.97;5.38;;;;;;;17.45;28.32;96895.53;5081952;28;20468;-66
2021/04/01 13:04:44;;;;;;;8.63;6.93;;;;;;;18.43;28.17;96960.69;5075301;28;20039;-67
2021/04/01 13:13:06;;;;;;;13.02;6.90;;;;;;;18.60;27.25;96907.09;5080192;28;20093;-70
2021/04/01 13:15:50;;;;;;;11.38;8.52;;;;;;;18.97;26.71;96945.34;5069447;28;20427;-69
2021/04/01 13:18:35;;;;;;;10.40;7.30;;;;;;;18.61;27.27;96905.88;5079242;28;20050;-71
2021/04/01 13:21:40;;;;;;;9.80;6.70;;;;;;;18.44;27.11;96850.84;5081678;28;20042;-70
2021/04/01 13:24:40;;;;;;;8.68;6.57;;;;;;;18.37;27.56;96883.81;5083642;28;20043;-70
2021/04/01 13:27:25;;;;;;;12.23;6.82;;;;;;;18.52;27.14;96908.44;5041728;28;20525;-70
2021/04/01 13:30:11;;;;;;;13.60;7.72;;;;;;;18.44;28.09;96926.59;5042377;28;20048;-66
2021/04/01 13:36:00;;;;;;;10.73;7.15;;;;;;;18.35;27.71;96863.81;5083478;28;20062;-67
2021/04/01 13:38:45;;;;;;;12.00;8.13;;;;;;;18.87;26.93;96874.16;5085810;28;20190;-73
2021/04/01 13:41:44;;;;;;;10.52;7.68;;;;;;;19.55;27.27;96908.94;5060154;28;20052;-64
2021/04/01 13:48:12;;;;;;;7.50;6.50;;;;;;;19.72;26.51;96911.81;5058220;28;20364;-74
2021/04/01 13:51:18;;;;;;;8.70;6.85;;;;;;;20.05;25.28;96739.97;5054050;28;20052;-74
2021/04/01 13:54:18;;;;;;;9.68;7.68;;;;;;;21.80;23.28;96762.41;5056903;28;20054;-68
2021/04/01 13:57:21;;;;;;;7.53;6.25;;;;;;;18.82;25.56;96590.38;5053487;28;20060;-69
2021/04/01 14:11:56;;;;;;;;;;;;;;;21.68;25.13;96881.59;5043785;28;20107;-71
2021/04/01 14:14:40;;;;;;;8.75;7.88;;;;;;;20.98;25.59;96886.38;5055794;28;19927;-65
2021/04/01 14:17:24;;;;;;;15.63;11.20;;;;;;;21.01;26.22;96885.47;5080033;28;20101;-65
2021/04/01 14:20:13;;;;;;;8.27;6.82;;;;;;;20.55;25.72;96857.72;5080072;28;20063;-69
2021/04/01 14:22:58;;;;;;;7.65;6.85;;;;;;;21.83;24.45;96882.00;5060729;28;20048;-71
2021/04/01 14:25:44;;;;;;;7.90;7.10;;;;;;;21.40;24.87;96879.59;5050673;28;20097;-69
2021/04/01 14:28:29;;;;;;;9.38;7.00;;;;;;;19.61;26.31;96804.47;5059787;28;20510;-70
2021/04/01 14:31:14;;;;;;;9.00;7.50;;;;;;;19.38;27.43;96893.25;5058690;28;20083;-65
2021/04/01 14:34:00;;;;;;;12.18;9.13;;;;;;;19.45;27.19;96890.31;5043948;28;20601;-65
2021/04/01 14:36:43;;;;;;;5.47;4.97;;;;;;;19.33;27.45;96904.97;5043787;28;20091;-64
2021/04/01 14:39:30;;;;;;;8.23;7.28;;;;;;;18.98;27.77;96902.81;5057896;28;20087;-65
2021/04/01 14:42:17;;;;;;;8.70;7.57;;;;;;;17.67;28.28;96767.97;5059693;28;20059;-69
2021/04/01 14:45:04;;;;;;;8.82;7.18;;;;;;;18.05;28.97;96896.28;5060186;28;20442;-69
2021/04/01 14:47:48;;;;;;;13.73;9.55;;;;;;;17.99;28.64;96883.16;5059427;28;20067;-66
2021/04/01 14:50:32;;;;;;;12.05;7.65;;;;;;;17.50;28.77;96819.41;5059701;28;20086;-67
2021/04/01 14:53:29;;;;;;;13.63;8.25;;;;;;;17.90;29.09;96882.91;5059820;28;20576;-66
2021/04/01 14:56:16;;;;;;;16.63;9.02;;;;;;;17.73;28.60;96890.34;5059468;28;20110;-66
2021/04/01 14:59:07;;;;;;;16.17;8.13;;;;;;;17.72;29.33;96888.75;5047806;28;20056;-67
2021/04/01 15:01:51;;;;;;;13.05;7.05;;;;;;;17.55;29.88;96866.56;5045231;28;20510;-67
2021/04/01 15:04:37;;;;;;;13.55;7.30;;;;;;;17.40;29.85;96870.75;5046688;28;20126;-67